sensor_id;sensor_type;location;lat;lon;timestamp;P1;durP1;ratioP1;P2;durP2;ratioP2
13855;SDS011;6998;53.608;9.958;2022-09-04T00:00:42;1.92;;;1.20;;
13855;SDS011;6998;53.608;9.958;2022-09-04T00:03:23;1.50;;;1.30;;
13855;SDS011;6998;53.608;9.958;2022-09-04T00:06:00;3.75;;;1.23;;
13855;SDS011;6998;53.608;9.958;2022-09-04T00:08:37;2.90;;;1.30;;
13855;SDS011;6998;53.608;9.958;2022-09-04T00:11:18;2.42;;;1.40;;
13855;SDS011;6998;53.608;9.958;2022-09-04T00:13:56;1.55;;;1.30;;
13855;SDS011;6998;53.608;9.958;2022-09-04T00:16:26;1.30;;;1.17;;
13855;SDS011;6998;53.608;9.958;2022-09-04T00:19:01;2.67;;;1.27;;
13855;SDS011;6998;53.608;9.958;2022-09-04T00:21:33;2.28;;;1.23;;
13855;SDS011;6998;53.608;9.958;2022-09-04T00:24:02;3.70;;;1.13;;
13855;SDS011;6998;53.608;9.958;2022-09-04T00:26:39;1.60;;;1.30;;
13855;SDS011;6998;53.608;9.958;2022-09-04T00:29:11;1.70;;;1.33;;
13855;SDS011;6998;53.608;9.958;2022-09-04T00:31:43;2.35;;;1.50;;
13855;SDS011;6998;53.608;9.958;2022-09-04T00:34:17;1.13;;;1.02;;
13855;SDS011;6998;53.608;9.958;2022-09-04T00:36:51;2.95;;;1.30;;
13855;SDS011;6998;53.608;9.958;2022-09-04T00:39:22;2.28;;;1.20;;
13855;SDS011;6998;53.608;9.958;2022-09-04T00:42:07;1.50;;;1.20;;
13855;SDS011;6998;53.608;9.958;2022-09-04T00:44:50;1.20;;;1.10;;
13855;SDS011;6998;53.608;9.958;2022-09-04T00:50:35;1.83;;;1.10;;
13855;SDS011;6998;53.608;9.958;2022-09-04T00:56:25;1.60;;;1.02;;
13855;SDS011;6998;53.608;9.958;2022-09-04T00:59:10;3.03;;;1.40;;
13855;SDS011;6998;53.608;9.958;2022-09-04T01:01:51;4.95;;;1.30;;
13855;SDS011;6998;53.608;9.958;2022-09-04T01:04:32;2.42;;;1.17;;
13855;SDS011;6998;53.608;9.958;2022-09-04T01:07:10;1.77;;;1.00;;
13855;SDS011;6998;53.608;9.958;2022-09-04T01:10:01;2.15;;;1.30;;
13855;SDS011;6998;53.608;9.958;2022-09-04T01:12:45;1.92;;;1.20;;
13855;SDS011;6998;53.608;9.958;2022-09-04T01:15:21;2.00;;;1.10;;
13855;SDS011;6998;53.608;9.958;2022-09-04T01:17:58;2.22;;;1.50;;
13855;SDS011;6998;53.608;9.958;2022-09-04T01:20:44;2.17;;;1.30;;
13855;SDS011;6998;53.608;9.958;2022-09-04T01:23:23;2.78;;;1.48;;
13855;SDS011;6998;53.608;9.958;2022-09-04T01:26:06;2.75;;;1.20;;
13855;SDS011;6998;53.608;9.958;2022-09-04T01:28:35;2.00;;;1.27;;
13855;SDS011;6998;53.608;9.958;2022-09-04T01:31:11;3.13;;;1.40;;
13855;SDS011;6998;53.608;9.958;2022-09-04T01:33:47;1.83;;;1.10;;
13855;SDS011;6998;53.608;9.958;2022-09-04T01:36:21;3.17;;;1.20;;
13855;SDS011;6998;53.608;9.958;2022-09-04T01:39:03;2.05;;;1.17;;
13855;SDS011;6998;53.608;9.958;2022-09-04T01:41:33;3.17;;;1.20;;
13855;SDS011;6998;53.608;9.958;2022-09-04T01:44:05;1.90;;;1.30;;
13855;SDS011;6998;53.608;9.958;2022-09-04T01:46:38;3.50;;;1.33;;
13855;SDS011;6998;53.608;9.958;2022-09-04T01:49:14;2.20;;;1.15;;
13855;SDS011;6998;53.608;9.958;2022-09-04T01:51:51;2.03;;;1.15;;
13855;SDS011;6998;53.608;9.958;2022-09-04T01:54:29;1.17;;;1.05;;
13855;SDS011;6998;53.608;9.958;2022-09-04T01:57:14;1.45;;;1.20;;
13855;SDS011;6998;53.608;9.958;2022-09-04T01:59:53;1.35;;;1.08;;
13855;SDS011;6998;53.608;9.958;2022-09-04T02:02:31;1.15;;;1.05;;
13855;SDS011;6998;53.608;9.958;2022-09-04T02:05:07;1.85;;;1.40;;
13855;SDS011;6998;53.608;9.958;2022-09-04T02:07:43;1.30;;;1.13;;
13855;SDS011;6998;53.608;9.958;2022-09-04T02:10:16;1.90;;;1.20;;
13855;SDS011;6998;53.608;9.958;2022-09-04T02:12:56;3.75;;;1.40;;
13855;SDS011;6998;53.608;9.958;2022-09-04T02:15:35;2.10;;;1.38;;
13855;SDS011;6998;53.608;9.958;2022-09-04T02:18:07;1.20;;;1.10;;
13855;SDS011;6998;53.608;9.958;2022-09-04T02:20:46;3.38;;;1.20;;
13855;SDS011;6998;53.608;9.958;2022-09-04T02:23:19;1.55;;;1.10;;
13855;SDS011;6998;53.608;9.958;2022-09-04T02:25:55;6.05;;;1.48;;
13855;SDS011;6998;53.608;9.958;2022-09-04T02:28:31;2.15;;;1.30;;
13855;SDS011;6998;53.608;9.958;2022-09-04T02:31:08;2.85;;;1.33;;
13855;SDS011;6998;53.608;9.958;2022-09-04T02:33:41;1.80;;;1.40;;
13855;SDS011;6998;53.608;9.958;2022-09-04T02:36:13;1.30;;;1.00;;
13855;SDS011;6998;53.608;9.958;2022-09-04T02:38:49;2.65;;;1.30;;
13855;SDS011;6998;53.608;9.958;2022-09-04T02:41:25;1.98;;;1.10;;
13855;SDS011;6998;53.608;9.958;2022-09-04T02:44:03;1.30;;;1.20;;
13855;SDS011;6998;53.608;9.958;2022-09-04T02:46:43;1.40;;;1.20;;
13855;SDS011;6998;53.608;9.958;2022-09-04T02:49:21;1.38;;;1.27;;
13855;SDS011;6998;53.608;9.958;2022-09-04T02:52:00;2.15;;;1.20;;
13855;SDS011;6998;53.608;9.958;2022-09-04T02:54:38;2.00;;;1.20;;
13855;SDS011;6998;53.608;9.958;2022-09-04T02:57:13;3.25;;;1.30;;
13855;SDS011;6998;53.608;9.958;2022-09-04T02:59:50;3.08;;;1.38;;
13855;SDS011;6998;53.608;9.958;2022-09-04T03:02:29;1.45;;;1.25;;
13855;SDS011;6998;53.608;9.958;2022-09-04T03:05:00;1.50;;;1.35;;
13855;SDS011;6998;53.608;9.958;2022-09-04T03:07:32;2.50;;;1.30;;
13855;SDS011;6998;53.608;9.958;2022-09-04T03:10:03;3.33;;;1.30;;
13855;SDS011;6998;53.608;9.958;2022-09-04T03:12:39;3.15;;;1.35;;
13855;SDS011;6998;53.608;9.958;2022-09-04T03:15:13;1.73;;;1.38;;
13855;SDS011;6998;53.608;9.958;2022-09-04T03:17:48;2.10;;;1.30;;
13855;SDS011;6998;53.608;9.958;2022-09-04T03:20:23;2.50;;;1.35;;
13855;SDS011;6998;53.608;9.958;2022-09-04T03:22:54;4.93;;;1.30;;
13855;SDS011;6998;53.608;9.958;2022-09-04T03:28:24;1.92;;;1.33;;
13855;SDS011;6998;53.608;9.958;2022-09-04T03:31:08;2.35;;;1.38;;
13855;SDS011;6998;53.608;9.958;2022-09-04T03:33:49;2.47;;;1.30;;
13855;SDS011;6998;53.608;9.958;2022-09-04T03:36:23;1.88;;;1.33;;
13855;SDS011;6998;53.608;9.958;2022-09-04T03:38:58;2.30;;;1.20;;
13855;SDS011;6998;53.608;9.958;2022-09-04T03:41:31;1.27;;;1.10;;
13855;SDS011;6998;53.608;9.958;2022-09-04T03:44:08;1.85;;;1.40;;
13855;SDS011;6998;53.608;9.958;2022-09-04T03:46:49;1.20;;;1.10;;
13855;SDS011;6998;53.608;9.958;2022-09-04T03:49:28;1.25;;;1.13;;
13855;SDS011;6998;53.608;9.958;2022-09-04T03:52:09;2.33;;;1.27;;
13855;SDS011;6998;53.608;9.958;2022-09-04T03:54:47;1.50;;;1.00;;
13855;SDS011;6998;53.608;9.958;2022-09-04T03:57:29;2.15;;;1.50;;
13855;SDS011;6998;53.608;9.958;2022-09-04T04:00:06;1.42;;;1.30;;
13855;SDS011;6998;53.608;9.958;2022-09-04T04:02:44;3.17;;;1.60;;
13855;SDS011;6998;53.608;9.958;2022-09-04T04:05:37;1.83;;;1.33;;
13855;SDS011;6998;53.608;9.958;2022-09-04T04:08:19;2.42;;;1.00;;
13855;SDS011;6998;53.608;9.958;2022-09-04T04:11:19;2.33;;;1.40;;
13855;SDS011;6998;53.608;9.958;2022-09-04T04:14:21;1.63;;;1.20;;
13855;SDS011;6998;53.608;9.958;2022-09-04T04:17:04;1.77;;;1.20;;
13855;SDS011;6998;53.608;9.958;2022-09-04T04:19:48;1.45;;;1.35;;
13855;SDS011;6998;53.608;9.958;2022-09-04T04:22:43;2.25;;;1.48;;
13855;SDS011;6998;53.608;9.958;2022-09-04T04:25:26;1.65;;;1.30;;
13855;SDS011;6998;53.608;9.958;2022-09-04T04:28:09;1.73;;;1.20;;
13855;SDS011;6998;53.608;9.958;2022-09-04T04:30:48;2.70;;;1.70;;
13855;SDS011;6998;53.608;9.958;2022-09-04T04:33:22;1.88;;;1.15;;
13855;SDS011;6998;53.608;9.958;2022-09-04T04:36:02;2.22;;;1.48;;
13855;SDS011;6998;53.608;9.958;2022-09-04T04:38:42;2.35;;;1.27;;
13855;SDS011;6998;53.608;9.958;2022-09-04T04:44:25;2.10;;;1.42;;
13855;SDS011;6998;53.608;9.958;2022-09-04T04:47:19;1.60;;;1.33;;
13855;SDS011;6998;53.608;9.958;2022-09-04T04:49:59;2.80;;;1.40;;
13855;SDS011;6998;53.608;9.958;2022-09-04T04:52:38;3.67;;;1.65;;
13855;SDS011;6998;53.608;9.958;2022-09-04T04:55:15;2.70;;;1.20;;
13855;SDS011;6998;53.608;9.958;2022-09-04T04:57:54;3.53;;;1.55;;
13855;SDS011;6998;53.608;9.958;2022-09-04T05:00:39;2.42;;;1.63;;
13855;SDS011;6998;53.608;9.958;2022-09-04T05:03:10;2.45;;;1.60;;
13855;SDS011;6998;53.608;9.958;2022-09-04T05:05:47;3.78;;;1.60;;
13855;SDS011;6998;53.608;9.958;2022-09-04T05:08:24;2.47;;;1.50;;
13855;SDS011;6998;53.608;9.958;2022-09-04T05:10:58;2.45;;;1.60;;
13855;SDS011;6998;53.608;9.958;2022-09-04T05:13:32;2.97;;;1.77;;
13855;SDS011;6998;53.608;9.958;2022-09-04T05:16:04;2.55;;;1.50;;
13855;SDS011;6998;53.608;9.958;2022-09-04T05:18:40;3.15;;;1.58;;
13855;SDS011;6998;53.608;9.958;2022-09-04T05:21:15;2.35;;;1.60;;
13855;SDS011;6998;53.608;9.958;2022-09-04T05:23:50;1.83;;;1.50;;
13855;SDS011;6998;53.608;9.958;2022-09-04T05:26:26;1.85;;;1.55;;
13855;SDS011;6998;53.608;9.958;2022-09-04T05:28:59;1.80;;;1.48;;
13855;SDS011;6998;53.608;9.958;2022-09-04T05:31:36;2.83;;;1.70;;
13855;SDS011;6998;53.608;9.958;2022-09-04T05:34:11;2.45;;;1.40;;
13855;SDS011;6998;53.608;9.958;2022-09-04T05:36:50;4.15;;;1.67;;
13855;SDS011;6998;53.608;9.958;2022-09-04T05:39:26;3.22;;;1.45;;
13855;SDS011;6998;53.608;9.958;2022-09-04T05:42:04;2.80;;;1.80;;
13855;SDS011;6998;53.608;9.958;2022-09-04T05:44:57;2.20;;;1.58;;
13855;SDS011;6998;53.608;9.958;2022-09-04T05:47:35;3.60;;;1.70;;
13855;SDS011;6998;53.608;9.958;2022-09-04T05:50:14;4.35;;;2.53;;
13855;SDS011;6998;53.608;9.958;2022-09-04T05:53:20;7.40;;;3.65;;
13855;SDS011;6998;53.608;9.958;2022-09-04T05:56:08;8.30;;;6.63;;
13855;SDS011;6998;53.608;9.958;2022-09-04T05:58:59;5.22;;;3.55;;
13855;SDS011;6998;53.608;9.958;2022-09-04T06:01:46;3.20;;;2.88;;
13855;SDS011;6998;53.608;9.958;2022-09-04T06:04:29;2.65;;;1.80;;
13855;SDS011;6998;53.608;9.958;2022-09-04T06:07:08;7.15;;;6.13;;
13855;SDS011;6998;53.608;9.958;2022-09-04T06:09:45;6.28;;;5.53;;
13855;SDS011;6998;53.608;9.958;2022-09-04T06:12:27;4.35;;;3.50;;
13855;SDS011;6998;53.608;9.958;2022-09-04T06:15:20;3.97;;;2.60;;
13855;SDS011;6998;53.608;9.958;2022-09-04T06:17:56;4.13;;;3.30;;
13855;SDS011;6998;53.608;9.958;2022-09-04T06:20:38;4.40;;;4.00;;
13855;SDS011;6998;53.608;9.958;2022-09-04T06:23:18;3.47;;;2.67;;
13855;SDS011;6998;53.608;9.958;2022-09-04T06:26:02;4.93;;;2.53;;
13855;SDS011;6998;53.608;9.958;2022-09-04T06:29:00;3.50;;;2.70;;
13855;SDS011;6998;53.608;9.958;2022-09-04T06:31:52;8.15;;;5.55;;
13855;SDS011;6998;53.608;9.958;2022-09-04T06:34:37;6.97;;;4.60;;
13855;SDS011;6998;53.608;9.958;2022-09-04T06:37:24;4.00;;;2.78;;
13855;SDS011;6998;53.608;9.958;2022-09-04T06:40:02;3.05;;;1.88;;
13855;SDS011;6998;53.608;9.958;2022-09-04T06:42:46;3.42;;;2.00;;
13855;SDS011;6998;53.608;9.958;2022-09-04T06:45:31;2.28;;;2.00;;
13855;SDS011;6998;53.608;9.958;2022-09-04T06:48:12;3.28;;;2.10;;
13855;SDS011;6998;53.608;9.958;2022-09-04T06:50:51;2.58;;;1.80;;
13855;SDS011;6998;53.608;9.958;2022-09-04T06:53:28;2.70;;;1.85;;
13855;SDS011;6998;53.608;9.958;2022-09-04T06:56:14;3.08;;;2.35;;
13855;SDS011;6998;53.608;9.958;2022-09-04T06:58:52;4.78;;;1.70;;
13855;SDS011;6998;53.608;9.958;2022-09-04T07:01:47;2.38;;;1.60;;
13855;SDS011;6998;53.608;9.958;2022-09-04T07:04:28;3.78;;;1.60;;
13855;SDS011;6998;53.608;9.958;2022-09-04T07:07:04;3.55;;;1.85;;
13855;SDS011;6998;53.608;9.958;2022-09-04T07:09:40;2.45;;;1.70;;
13855;SDS011;6998;53.608;9.958;2022-09-04T07:12:16;2.33;;;1.50;;
13855;SDS011;6998;53.608;9.958;2022-09-04T07:17:58;2.83;;;1.85;;
13855;SDS011;6998;53.608;9.958;2022-09-04T07:20:31;2.63;;;1.75;;
13855;SDS011;6998;53.608;9.958;2022-09-04T07:23:17;3.13;;;1.77;;
13855;SDS011;6998;53.608;9.958;2022-09-04T07:25:54;2.95;;;1.80;;
13855;SDS011;6998;53.608;9.958;2022-09-04T07:28:32;3.95;;;2.92;;
13855;SDS011;6998;53.608;9.958;2022-09-04T07:31:08;2.75;;;2.30;;
13855;SDS011;6998;53.608;9.958;2022-09-04T07:33:42;2.58;;;1.95;;
13855;SDS011;6998;53.608;9.958;2022-09-04T07:36:16;2.30;;;1.90;;
13855;SDS011;6998;53.608;9.958;2022-09-04T07:38:51;3.55;;;3.22;;
13855;SDS011;6998;53.608;9.958;2022-09-04T07:41:22;3.70;;;2.13;;
13855;SDS011;6998;53.608;9.958;2022-09-04T07:43:58;2.38;;;1.88;;
13855;SDS011;6998;53.608;9.958;2022-09-04T07:46:32;4.45;;;2.75;;
13855;SDS011;6998;53.608;9.958;2022-09-04T07:49:11;4.00;;;2.70;;
13855;SDS011;6998;53.608;9.958;2022-09-04T07:51:45;2.92;;;2.15;;
13855;SDS011;6998;53.608;9.958;2022-09-04T07:54:28;4.72;;;2.28;;
13855;SDS011;6998;53.608;9.958;2022-09-04T07:57:08;3.15;;;2.40;;
13855;SDS011;6998;53.608;9.958;2022-09-04T08:00:00;4.57;;;2.75;;
13855;SDS011;6998;53.608;9.958;2022-09-04T08:02:40;2.97;;;2.58;;
13855;SDS011;6998;53.608;9.958;2022-09-04T08:05:22;6.43;;;2.70;;
13855;SDS011;6998;53.608;9.958;2022-09-04T08:10:43;2.92;;;2.70;;
13855;SDS011;6998;53.608;9.958;2022-09-04T08:13:28;3.50;;;3.10;;
13855;SDS011;6998;53.608;9.958;2022-09-04T08:16:10;2.95;;;2.42;;
13855;SDS011;6998;53.608;9.958;2022-09-04T08:18:50;3.17;;;2.53;;
13855;SDS011;6998;53.608;9.958;2022-09-04T08:21:33;3.30;;;2.17;;
13855;SDS011;6998;53.608;9.958;2022-09-04T08:24:16;4.60;;;2.60;;
13855;SDS011;6998;53.608;9.958;2022-09-04T08:27:02;3.08;;;2.47;;
13855;SDS011;6998;53.608;9.958;2022-09-04T08:29:39;4.05;;;2.58;;
13855;SDS011;6998;53.608;9.958;2022-09-04T08:32:21;5.03;;;2.70;;
13855;SDS011;6998;53.608;9.958;2022-09-04T08:35:09;4.45;;;2.60;;
13855;SDS011;6998;53.608;9.958;2022-09-04T08:37:50;4.18;;;2.55;;
13855;SDS011;6998;53.608;9.958;2022-09-04T08:40:40;4.15;;;2.65;;
13855;SDS011;6998;53.608;9.958;2022-09-04T08:43:27;4.80;;;2.40;;
13855;SDS011;6998;53.608;9.958;2022-09-04T08:46:13;4.60;;;3.00;;
13855;SDS011;6998;53.608;9.958;2022-09-04T08:49:23;3.88;;;2.50;;
13855;SDS011;6998;53.608;9.958;2022-09-04T08:55:38;4.47;;;2.80;;
13855;SDS011;6998;53.608;9.958;2022-09-04T08:58:15;4.35;;;2.67;;
13855;SDS011;6998;53.608;9.958;2022-09-04T09:01:15;2.90;;;2.60;;
13855;SDS011;6998;53.608;9.958;2022-09-04T09:13:08;4.53;;;2.97;;
13855;SDS011;6998;53.608;9.958;2022-09-04T09:18:48;3.53;;;2.90;;
13855;SDS011;6998;53.608;9.958;2022-09-04T09:21:32;3.33;;;2.80;;
13855;SDS011;6998;53.608;9.958;2022-09-04T09:27:13;5.50;;;2.72;;
13855;SDS011;6998;53.608;9.958;2022-09-04T09:30:12;3.60;;;2.95;;
13855;SDS011;6998;53.608;9.958;2022-09-04T09:36:06;2.65;;;2.45;;
13855;SDS011;6998;53.608;9.958;2022-09-04T09:38:58;3.67;;;2.50;;
13855;SDS011;6998;53.608;9.958;2022-09-04T09:41:42;4.45;;;2.50;;
13855;SDS011;6998;53.608;9.958;2022-09-04T09:47:52;3.35;;;2.72;;
13855;SDS011;6998;53.608;9.958;2022-09-04T10:00:15;2.80;;;2.50;;
13855;SDS011;6998;53.608;9.958;2022-09-04T10:02:59;2.40;;;2.20;;
13855;SDS011;6998;53.608;9.958;2022-09-04T10:06:11;3.42;;;2.15;;
13855;SDS011;6998;53.608;9.958;2022-09-04T10:09:22;5.28;;;2.90;;
13855;SDS011;6998;53.608;9.958;2022-09-04T10:18:21;2.42;;;2.08;;
13855;SDS011;6998;53.608;9.958;2022-09-04T10:27:30;2.80;;;2.22;;
13855;SDS011;6998;53.608;9.958;2022-09-04T10:30:10;2.90;;;2.58;;
13855;SDS011;6998;53.608;9.958;2022-09-04T10:32:48;4.57;;;2.30;;
13855;SDS011;6998;53.608;9.958;2022-09-04T10:35:58;2.80;;;2.50;;
13855;SDS011;6998;53.608;9.958;2022-09-04T10:38:37;2.65;;;2.45;;
13855;SDS011;6998;53.608;9.958;2022-09-04T10:41:44;2.42;;;2.22;;
13855;SDS011;6998;53.608;9.958;2022-09-04T10:44:35;2.72;;;2.13;;
13855;SDS011;6998;53.608;9.958;2022-09-04T10:47:27;3.00;;;2.10;;
13855;SDS011;6998;53.608;9.958;2022-09-04T10:50:15;3.08;;;2.22;;
13855;SDS011;6998;53.608;9.958;2022-09-04T10:56:03;2.42;;;2.22;;
13855;SDS011;6998;53.608;9.958;2022-09-04T10:58:42;2.25;;;2.00;;
13855;SDS011;6998;53.608;9.958;2022-09-04T11:01:40;2.97;;;2.03;;
13855;SDS011;6998;53.608;9.958;2022-09-04T11:04:32;2.35;;;2.00;;
13855;SDS011;6998;53.608;9.958;2022-09-04T11:07:29;2.72;;;2.20;;
13855;SDS011;6998;53.608;9.958;2022-09-04T11:10:19;2.20;;;1.77;;
13855;SDS011;6998;53.608;9.958;2022-09-04T11:13:02;5.35;;;2.40;;
13855;SDS011;6998;53.608;9.958;2022-09-04T11:21:54;3.58;;;2.10;;
13855;SDS011;6998;53.608;9.958;2022-09-04T11:24:53;2.28;;;2.08;;
13855;SDS011;6998;53.608;9.958;2022-09-04T11:30:47;3.50;;;2.58;;
13855;SDS011;6998;53.608;9.958;2022-09-04T11:40:10;2.60;;;1.98;;
13855;SDS011;6998;53.608;9.958;2022-09-04T11:43:07;2.60;;;2.40;;
13855;SDS011;6998;53.608;9.958;2022-09-04T11:45:55;4.47;;;2.10;;
13855;SDS011;6998;53.608;9.958;2022-09-04T11:48:50;4.03;;;2.38;;
13855;SDS011;6998;53.608;9.958;2022-09-04T11:51:59;2.42;;;2.10;;
13855;SDS011;6998;53.608;9.958;2022-09-04T11:57:39;2.85;;;2.53;;
13855;SDS011;6998;53.608;9.958;2022-09-04T12:00:24;3.08;;;2.15;;
13855;SDS011;6998;53.608;9.958;2022-09-04T12:06:09;2.67;;;2.15;;
13855;SDS011;6998;53.608;9.958;2022-09-04T12:18:42;2.50;;;2.30;;
13855;SDS011;6998;53.608;9.958;2022-09-04T12:21:29;4.22;;;2.25;;
13855;SDS011;6998;53.608;9.958;2022-09-04T12:27:23;2.40;;;2.20;;
13855;SDS011;6998;53.608;9.958;2022-09-04T12:43:15;2.35;;;2.00;;
13855;SDS011;6998;53.608;9.958;2022-09-04T12:45:53;2.30;;;2.10;;
13855;SDS011;6998;53.608;9.958;2022-09-04T12:54:29;3.13;;;1.98;;
13855;SDS011;6998;53.608;9.958;2022-09-04T12:57:09;2.28;;;2.05;;
13855;SDS011;6998;53.608;9.958;2022-09-04T12:59:53;2.10;;;1.80;;
13855;SDS011;6998;53.608;9.958;2022-09-04T13:02:33;4.03;;;2.13;;
13855;SDS011;6998;53.608;9.958;2022-09-04T13:05:17;2.53;;;2.30;;
13855;SDS011;6998;53.608;9.958;2022-09-04T13:08:08;2.63;;;2.42;;
13855;SDS011;6998;53.608;9.958;2022-09-04T13:10:54;3.30;;;2.55;;
13855;SDS011;6998;53.608;9.958;2022-09-04T13:13:37;3.10;;;2.40;;
13855;SDS011;6998;53.608;9.958;2022-09-04T13:16:12;2.95;;;2.30;;
13855;SDS011;6998;53.608;9.958;2022-09-04T13:18:48;2.67;;;1.98;;
13855;SDS011;6998;53.608;9.958;2022-09-04T13:21:27;2.47;;;2.20;;
13855;SDS011;6998;53.608;9.958;2022-09-04T13:24:10;2.78;;;1.92;;
13855;SDS011;6998;53.608;9.958;2022-09-04T13:26:54;2.65;;;2.08;;
13855;SDS011;6998;53.608;9.958;2022-09-04T13:29:37;2.03;;;1.90;;
13855;SDS011;6998;53.608;9.958;2022-09-04T13:32:21;3.85;;;2.05;;
13855;SDS011;6998;53.608;9.958;2022-09-04T13:35:05;2.75;;;2.03;;
13855;SDS011;6998;53.608;9.958;2022-09-04T13:37:41;2.30;;;1.85;;
13855;SDS011;6998;53.608;9.958;2022-09-04T13:40:33;2.70;;;1.92;;
13855;SDS011;6998;53.608;9.958;2022-09-04T13:43:45;2.30;;;2.10;;
13855;SDS011;6998;53.608;9.958;2022-09-04T13:46:30;1.95;;;1.85;;
13855;SDS011;6998;53.608;9.958;2022-09-04T13:49:01;2.20;;;2.00;;
13855;SDS011;6998;53.608;9.958;2022-09-04T13:51:33;2.70;;;1.92;;
13855;SDS011;6998;53.608;9.958;2022-09-04T13:54:05;3.35;;;2.20;;
13855;SDS011;6998;53.608;9.958;2022-09-04T13:56:38;2.20;;;2.00;;
13855;SDS011;6998;53.608;9.958;2022-09-04T13:59:11;2.55;;;1.88;;
13855;SDS011;6998;53.608;9.958;2022-09-04T14:01:44;1.95;;;1.85;;
13855;SDS011;6998;53.608;9.958;2022-09-04T14:04:15;3.08;;;2.03;;
13855;SDS011;6998;53.608;9.958;2022-09-04T14:06:46;2.22;;;2.00;;
13855;SDS011;6998;53.608;9.958;2022-09-04T14:09:14;4.07;;;1.75;;
13855;SDS011;6998;53.608;9.958;2022-09-04T14:12:02;2.20;;;2.00;;
13855;SDS011;6998;53.608;9.958;2022-09-04T14:14:54;1.90;;;1.80;;
13855;SDS011;6998;53.608;9.958;2022-09-04T14:17:44;3.58;;;1.90;;
13855;SDS011;6998;53.608;9.958;2022-09-04T14:20:16;2.17;;;1.98;;
13855;SDS011;6998;53.608;9.958;2022-09-04T14:22:47;3.45;;;1.90;;
13855;SDS011;6998;53.608;9.958;2022-09-04T14:25:25;1.98;;;1.88;;
13855;SDS011;6998;53.608;9.958;2022-09-04T14:27:59;4.00;;;1.88;;
13855;SDS011;6998;53.608;9.958;2022-09-04T14:30:34;5.75;;;2.03;;
13855;SDS011;6998;53.608;9.958;2022-09-04T14:33:09;3.50;;;2.13;;
13855;SDS011;6998;53.608;9.958;2022-09-04T14:35:45;2.83;;;2.03;;
13855;SDS011;6998;53.608;9.958;2022-09-04T14:41:23;4.32;;;1.95;;
13855;SDS011;6998;53.608;9.958;2022-09-04T14:44:05;2.42;;;2.10;;
13855;SDS011;6998;53.608;9.958;2022-09-04T14:46:45;4.03;;;1.95;;
13855;SDS011;6998;53.608;9.958;2022-09-04T14:49:25;3.10;;;2.15;;
13855;SDS011;6998;53.608;9.958;2022-09-04T14:51:55;2.30;;;2.10;;
13855;SDS011;6998;53.608;9.958;2022-09-04T14:54:27;3.20;;;2.13;;
13855;SDS011;6998;53.608;9.958;2022-09-04T14:56:56;2.25;;;2.00;;
13855;SDS011;6998;53.608;9.958;2022-09-04T14:59:27;3.88;;;2.00;;
13855;SDS011;6998;53.608;9.958;2022-09-04T15:02:03;3.50;;;2.38;;
13855;SDS011;6998;53.608;9.958;2022-09-04T15:04:44;2.97;;;2.00;;
13855;SDS011;6998;53.608;9.958;2022-09-04T15:07:20;2.28;;;2.10;;
13855;SDS011;6998;53.608;9.958;2022-09-04T15:09:53;2.40;;;2.20;;
13855;SDS011;6998;53.608;9.958;2022-09-04T15:12:35;2.75;;;2.20;;
13855;SDS011;6998;53.608;9.958;2022-09-04T15:15:08;2.40;;;2.00;;
13855;SDS011;6998;53.608;9.958;2022-09-04T15:17:43;2.13;;;1.90;;
13855;SDS011;6998;53.608;9.958;2022-09-04T15:20:18;3.25;;;1.80;;
13855;SDS011;6998;53.608;9.958;2022-09-04T15:22:48;2.47;;;2.05;;
13855;SDS011;6998;53.608;9.958;2022-09-04T15:25:30;2.50;;;2.20;;
13855;SDS011;6998;53.608;9.958;2022-09-04T15:28:07;2.40;;;2.17;;
13855;SDS011;6998;53.608;9.958;2022-09-04T15:30:38;2.15;;;1.92;;
13855;SDS011;6998;53.608;9.958;2022-09-04T15:33:09;2.15;;;1.95;;
13855;SDS011;6998;53.608;9.958;2022-09-04T15:35:40;2.55;;;2.00;;
13855;SDS011;6998;53.608;9.958;2022-09-04T15:38:08;3.35;;;2.03;;
13855;SDS011;6998;53.608;9.958;2022-09-04T15:40:45;2.20;;;1.95;;
13855;SDS011;6998;53.608;9.958;2022-09-04T15:43:17;2.33;;;2.00;;
13855;SDS011;6998;53.608;9.958;2022-09-04T15:45:53;2.78;;;2.35;;
13855;SDS011;6998;53.608;9.958;2022-09-04T15:48:26;2.78;;;1.90;;
13855;SDS011;6998;53.608;9.958;2022-09-04T15:51:01;2.88;;;2.25;;
13855;SDS011;6998;53.608;9.958;2022-09-04T15:53:37;2.20;;;1.92;;
13855;SDS011;6998;53.608;9.958;2022-09-04T15:56:23;2.72;;;2.40;;
13855;SDS011;6998;53.608;9.958;2022-09-04T15:58:56;2.92;;;1.92;;
13855;SDS011;6998;53.608;9.958;2022-09-04T16:01:29;3.17;;;2.10;;
13855;SDS011;6998;53.608;9.958;2022-09-04T16:04:08;2.85;;;2.40;;
13855;SDS011;6998;53.608;9.958;2022-09-04T16:06:44;2.55;;;1.80;;
13855;SDS011;6998;53.608;9.958;2022-09-04T16:09:19;2.20;;;2.00;;
13855;SDS011;6998;53.608;9.958;2022-09-04T16:11:56;3.58;;;1.90;;
13855;SDS011;6998;53.608;9.958;2022-09-04T16:14:31;2.22;;;2.03;;
13855;SDS011;6998;53.608;9.958;2022-09-04T16:17:05;3.15;;;1.90;;
13855;SDS011;6998;53.608;9.958;2022-09-04T16:19:37;3.55;;;2.28;;
13855;SDS011;6998;53.608;9.958;2022-09-04T16:22:17;2.30;;;1.90;;
13855;SDS011;6998;53.608;9.958;2022-09-04T16:24:53;2.10;;;1.88;;
13855;SDS011;6998;53.608;9.958;2022-09-04T16:27:29;2.17;;;1.98;;
13855;SDS011;6998;53.608;9.958;2022-09-04T16:29:57;2.58;;;1.88;;
13855;SDS011;6998;53.608;9.958;2022-09-04T16:32:27;4.45;;;1.92;;
13855;SDS011;6998;53.608;9.958;2022-09-04T16:34:59;6.88;;;2.03;;
13855;SDS011;6998;53.608;9.958;2022-09-04T16:37:34;3.17;;;2.10;;
13855;SDS011;6998;53.608;9.958;2022-09-04T16:40:11;2.20;;;2.00;;
13855;SDS011;6998;53.608;9.958;2022-09-04T16:42:48;2.70;;;2.30;;
13855;SDS011;6998;53.608;9.958;2022-09-04T16:45:19;2.30;;;2.10;;
13855;SDS011;6998;53.608;9.958;2022-09-04T16:47:50;2.40;;;1.92;;
13855;SDS011;6998;53.608;9.958;2022-09-04T16:50:22;3.17;;;2.15;;
13855;SDS011;6998;53.608;9.958;2022-09-04T16:53:00;3.42;;;2.45;;
13855;SDS011;6998;53.608;9.958;2022-09-04T16:55:39;3.67;;;2.22;;
13855;SDS011;6998;53.608;9.958;2022-09-04T16:58:17;2.40;;;1.90;;
13855;SDS011;6998;53.608;9.958;2022-09-04T17:00:56;2.60;;;2.10;;
13855;SDS011;6998;53.608;9.958;2022-09-04T17:03:34;2.53;;;1.98;;
13855;SDS011;6998;53.608;9.958;2022-09-04T17:06:06;4.03;;;2.00;;
13855;SDS011;6998;53.608;9.958;2022-09-04T17:08:48;2.63;;;2.17;;
13855;SDS011;6998;53.608;9.958;2022-09-04T17:11:19;4.28;;;2.35;;
13855;SDS011;6998;53.608;9.958;2022-09-04T17:13:56;2.80;;;2.10;;
13855;SDS011;6998;53.608;9.958;2022-09-04T17:16:30;2.60;;;2.20;;
13855;SDS011;6998;53.608;9.958;2022-09-04T17:19:01;2.58;;;2.20;;
13855;SDS011;6998;53.608;9.958;2022-09-04T17:21:28;2.80;;;2.40;;
13855;SDS011;6998;53.608;9.958;2022-09-04T17:24:30;3.65;;;2.47;;
13855;SDS011;6998;53.608;9.958;2022-09-04T17:27:04;3.85;;;2.50;;
13855;SDS011;6998;53.608;9.958;2022-09-04T17:29:39;4.30;;;2.35;;
13855;SDS011;6998;53.608;9.958;2022-09-04T17:32:11;2.75;;;2.53;;
13855;SDS011;6998;53.608;9.958;2022-09-04T17:34:48;3.55;;;2.40;;
13855;SDS011;6998;53.608;9.958;2022-09-04T17:37:21;3.78;;;2.45;;
13855;SDS011;6998;53.608;9.958;2022-09-04T17:39:55;2.47;;;2.25;;
13855;SDS011;6998;53.608;9.958;2022-09-04T17:42:28;3.22;;;2.40;;
13855;SDS011;6998;53.608;9.958;2022-09-04T17:45:08;3.35;;;2.80;;
13855;SDS011;6998;53.608;9.958;2022-09-04T17:47:40;3.88;;;2.70;;
13855;SDS011;6998;53.608;9.958;2022-09-04T17:50:09;5.10;;;2.40;;
13855;SDS011;6998;53.608;9.958;2022-09-04T17:52:52;4.22;;;2.67;;
13855;SDS011;6998;53.608;9.958;2022-09-04T17:55:23;2.70;;;2.50;;
13855;SDS011;6998;53.608;9.958;2022-09-04T17:57:53;4.22;;;3.08;;
13855;SDS011;6998;53.608;9.958;2022-09-04T18:00:26;4.78;;;2.80;;
13855;SDS011;6998;53.608;9.958;2022-09-04T18:02:57;4.60;;;2.85;;
13855;SDS011;6998;53.608;9.958;2022-09-04T18:05:30;5.18;;;3.33;;
13855;SDS011;6998;53.608;9.958;2022-09-04T18:08:00;3.40;;;2.80;;
13855;SDS011;6998;53.608;9.958;2022-09-04T18:10:33;5.13;;;3.03;;
13855;SDS011;6998;53.608;9.958;2022-09-04T18:13:12;3.83;;;2.97;;
13855;SDS011;6998;53.608;9.958;2022-09-04T18:15:45;7.32;;;3.05;;
13855;SDS011;6998;53.608;9.958;2022-09-04T18:18:20;4.30;;;3.23;;
13855;SDS011;6998;53.608;9.958;2022-09-04T18:20:52;7.38;;;3.20;;